EST,Max TemperatureF,Mean TemperatureF,Min TemperatureF,Max Dew PointF,MeanDew PointF,Min DewpointF,Max Humidity, Mean Humidity, Min Humidity, Max Sea Level PressureIn, Mean Sea Level PressureIn, Min Sea Level PressureIn, Max VisibilityMiles, Mean VisibilityMiles, Min VisibilityMiles, Max Wind SpeedMPH, Mean Wind SpeedMPH, Max Gust SpeedMPH,PrecipitationIn, CloudCover, Events, WindDirDegrees
2013-2-1,40,30,18,28,8,-5,80,43,21,30.31,30.19,29.97,10,10,3,20,10,31,0.00,2,Snow,318
2013-2-2,34,25,16,29,20,6,96,81,35,30.31,30.18,30.04,10,8,0,6,0,,0.11,5,Snow,71
2013-2-3,41,35,29,31,25,19,96,69,47,30.05,29.99,29.94,10,9,1,15,4,25,0.08,5,Snow,327
2013-2-4,50,36,22,30,22,16,89,64,27,30.11,30.03,29.97,10,10,10,12,3,20,0.00,3,,160
2013-2-5,55,42,28,36,31,26,93,75,40,30.03,29.97,29.93,10,10,10,8,1,,0.00,4,,260
2013-2-6,60,41,22,34,23,10,94,67,14,30.20,30.12,30.04,10,10,7,10,1,,0.00,0,,336
2013-2-7,42,36,29,41,34,26,97,87,66,30.21,30.10,29.95,10,7,0,0,0,,0.25,6,Fog-Rain,-1
2013-2-8,51,43,35,45,36,25,99,80,45,30.16,29.99,29.91,10,6,0,14,3,23,0.02,5,Fog-Rain,319
2013-2-9,61,40,20,29,21,3,96,60,11,30.29,30.22,30.13,10,10,7,8,2,,0.00,0,,30
2013-2-10,53,41,30,48,32,11,99,76,19,30.33,30.25,30.11,10,8,2,14,1,20,0.91,4,Rain,136
2013-2-11,55,46,36,53,44,32,100,89,44,30.11,30.07,30.04,10,10,4,10,3,,0.11,5,Rain,330
2013-2-12,52,40,29,41,33,20,99,77,29,30.12,30.03,29.89,10,10,2,5,0,,0.31,3,Rain,304
2013-2-13,50,42,35,41,36,28,99,82,55,29.92,29.78,29.68,10,10,1,18,4,28,0.21,7,Rain,343
2013-2-14,53,38,24,29,26,23,95,70,33,30.05,29.99,29.92,10,10,7,9,2,,0.00,0,,296
2013-2-15,55,38,22,36,28,20,94,73,32,30.11,30.04,29.95,10,10,10,13,2,23,0.00,3,Rain,324
2013-2-16,36,30,23,29,19,8,83,64,37,30.02,29.95,29.89,10,9,1,17,7,29,0.00,5,Snow,313
2013-2-17,36,27,18,16,7,2,87,47,25,30.23,30.13,30.03,10,10,10,17,9,29,0.00,0,,306
2013-2-18,55,35,16,22,17,13,89,55,24,30.33,30.23,30.13,10,10,5,12,2,18,0.00,1,,135
2013-2-19,51,42,32,38,23,9,97,58,25,30.12,30.02,29.92,10,8,1,17,6,26,0.22,5,Rain-Snow,268
2013-2-20,47,35,23,17,0,-17,73,28,7,30.14,30.10,30.06,10,10,10,14,6,23,0.00,0,,335
2013-2-21,62,40,20,37,18,-6,91,54,7,30.19,30.10,30.00,10,9,2,7,1,,0.44,2,Rain,116
2013-2-22,44,40,37,42,38,34,98,89,80,30.20,30.11,30.05,10,7,1,10,2,,0.59,8,Rain,83
2013-2-23,54,46,38,50,44,37,100,95,79,30.05,29.91,29.82,10,7,0,7,2,,0.19,7,Fog-Rain,94
2013-2-24,59,43,27,40,25,12,98,66,16,30.03,29.97,29.89,10,7,0,13,2,25,0.00,2,Fog,329
2013-2-25,53,39,26,39,29,24,95,71,36,30.08,29.99,29.89,10,10,10,7,1,,0.00,3,,149
2013-2-26,49,44,39,46,40,31,98,83,64,29.87,29.66,29.54,10,8,2,17,3,22,1.35,8,Rain,199
2013-2-27,53,44,36,33,29,24,78,60,32,29.80,29.76,29.68,10,10,10,18,8,32,0.01,5,Rain,296
2013-2-28,39,36,32,29,23,19,69,61,52,29.92,29.84,29.76,10,10,10,15,7,22,0.00,8,,317